EGLLENML

Guest
Details From EGLL - London Heathrow
To ENML - Molde Årø
Flight Number -
Tags Generated
Created
Modified
Stats Distance 725 nm / 1,342 km
Max Altitude 0 ft / 0 m
Waypoints 4
Social Downloads 0
Likes 0
Share VATSIM

Download

Looking for another format? Having issues loading an existing format? Contact us
Advertisement - Login to hide

Notes

Generated

Route

EGLL UPATA TAT ENML

ID Type Via Altitude Latitude Longitude Leg Dist Tot Dist Heading (true) Name
O EGLL APT - 0 ft / 0 m 51.46477˚ -0.48695˚ - 0 nm - -
UPATA FIX - 0 ft / 0 m 58.69583˚ 3.48722˚ 455 nm 455 nm 16° / 19° -
TAT NDB - 0 ft / 0 m 62.67984˚ 6.91229˚ 259 nm 714 nm 21° / 24° TAUTRA NDB
O ENML APT - 0 ft / 0 m 62.74250˚ 7.24800˚ 9 nm 724 nm 68° / 68° -

Altitude Profile

Advertisement - Login to hide

Weather


0- 5 10 15 20 25 30 35+ Temperature / ° C

Clouds and Precipitation
Forecast for 2017-12-17 00:00 UTC. Updated an hour ago

Ground ~20,000 ft ~40,000 ft Winds

EGLL

Details ICAO EGLL (LHR)
Name London Heathrow
Region United Kingdom
Timezone Europe/London (UTC+0.0)
Stats Elevation 83 ft / 25 m (AMSL)
Location 51.471218° -0.460978°
Runways 2
Magnetic Variation 0.559° W

METAR

EGLL 162020Z AUTO 29006KT 9999 FEW029 05/02 Q1021 NOSIG

Decode

TAF

TAF EGLL 161652Z 1618/1724 30006KT 9999 SCT030 BECMG 1621/1624 6000 TEMPO 1700/1711 3000 BR MIFG BKN003 PROB40 1701/1710 0300 FZFG FG VV/// TEMPO 1712/1714 RA BKN006 BECMG 1714/1717 -RADZ BKN006 PROB40 TEMPO 1717/1722 3000 RADZ BKN004 BECMG 1722/1724 9999 NSW FEW030

Decode

Departure Runways

ID Width Length Bearing (true) Bearing (mag) Surface Threshold Offset Overrun Length
09L 164 ft / 50 m 12,811 ft / 3,905 m 89.64° 90.20° Asphalt 1,004 ft / 306 m 0 ft / 0 m
09R 164 ft / 50 m 12,019 ft / 3,663 m 89.67° 90.23° Asphalt 1,007 ft / 307 m 0 ft / 0 m
27L 164 ft / 50 m 12,019 ft / 3,663 m 269.71° 270.27° Asphalt 0 ft / 0 m 69 ft / 21 m
27R 164 ft / 50 m 12,811 ft / 3,905 m 269.69° 270.25° Asphalt 0 ft / 0 m 69 ft / 21 m

ENML

Details ICAO ENML (MOL)
Name Molde Aro
Region Norway
Timezone Europe/Oslo (UTC+1.0)
Stats Elevation 10 ft / 3 m (AMSL)
Location 62.745572° 7.267482°
Runways 1
Magnetic Variation 1.716° E

METAR

ENML 162020Z 28005KT 200V320 9999 -SHRA FEW004 SCT007 BKN010 02/01 Q1010

Decode

TAF

Not found

Destination Runways

ID Width Length Bearing (true) Bearing (mag) Surface Threshold Offset Overrun Length
07 148 ft / 45 m 6,886 ft / 2,099 m 70.96° 69.24° Asphalt 230 ft / 70 m 0 ft / 0 m
25 148 ft / 45 m 6,886 ft / 2,099 m 251.00° 249.28° Asphalt 197 ft / 60 m 0 ft / 0 m

Approach Navaids

Runway Type Ident Frequency Range Bearing (true) Bearing (mag) Slope Elevation
07 Localiser ML 109.75 MHz 18 nm / 33 km 71.02° 69.31° - 4 ft / 1 m (AMSL)
07 Glidescope ML 109.75 MHz 10 nm / 19 km 71.02° 69.31° 3.10° 8 ft / 2 m (AMSL)
25 Localiser ME 109.10 MHz 18 nm / 33 km 256.01° 254.29° - 5 ft / 2 m (AMSL)

Popular Alternatives